Time;durP1;ratioP1;P1;durP2;ratioP2;P2;SDS_P1;SDS_P2;PMS_P1;PMS_P2;Temp;Humidity;BMP_temperature;BMP_pressure;BME280_temperature;BME280_humidity;BME280_pressure;Samples;Min_cycle;Max_cycle;Signal;HPM_P1;HPM_P2
2022/12/09 00:01:47;;;;;;;92.60;37.05;;;;;;;9.99;100.00;99881.53;5070103;28;20059;-69
2022/12/09 00:04:12;;;;;;;91.85;37.90;;;;;;;9.90;100.00;99847.94;5070186;28;20115;-69
2022/12/09 00:06:38;;;;;;;98.13;39.28;;;;;;;9.36;100.00;99784.25;5069860;28;20111;-69
2022/12/09 00:09:03;;;;;;;103.22;39.30;;;;;;;10.01;100.00;99886.56;5070086;28;20513;-70
2022/12/09 00:11:28;;;;;;;99.93;39.42;;;;;;;9.83;100.00;99838.81;5069212;28;20036;-68
2022/12/09 00:13:56;;;;;;;109.00;41.03;;;;;;;9.93;100.00;99876.63;5069544;28;20040;-69
2022/12/09 00:16:23;;;;;;;95.18;38.97;;;;;;;10.08;100.00;99868.56;5069963;28;20511;-69
2022/12/09 00:18:49;;;;;;;110.00;40.20;;;;;;;10.05;100.00;99881.38;5070243;28;20028;-68
2022/12/09 00:21:19;;;;;;;131.18;42.03;;;;;;;10.13;100.00;99899.81;5069965;28;20032;-72
2022/12/09 00:23:45;;;;;;;136.60;43.40;;;;;;;9.64;100.00;99810.56;5069545;28;20063;-69
2022/12/09 00:26:11;;;;;;;121.88;41.28;;;;;;;10.06;100.00;99903.34;5069415;28;20037;-68
2022/12/09 00:28:37;;;;;;;116.22;41.30;;;;;;;10.08;100.00;99909.22;5069819;28;20104;-69
2022/12/09 00:31:04;;;;;;;109.63;41.40;;;;;;;9.57;100.00;99837.81;5069970;28;20116;-69
2022/12/09 00:33:30;;;;;;;105.15;39.78;;;;;;;9.64;100.00;99841.03;5069124;28;20041;-69
2022/12/09 00:36:05;;;;;;;93.05;39.17;;;;;;;9.90;100.00;99914.81;5069629;28;20028;-69
2022/12/09 00:38:31;;;;;;;78.70;37.00;;;;;;;9.75;100.00;99911.81;5051449;28;20070;-69
2022/12/09 00:40:56;;;;;;;80.50;37.60;;;;;;;8.90;100.00;99766.00;5069345;28;20040;-69
2022/12/09 00:43:22;;;;;;;81.60;38.72;;;;;;;8.85;100.00;99748.41;5069846;28;20032;-69
2022/12/09 00:45:47;;;;;;;77.57;37.78;;;;;;;9.76;100.00;99899.09;5070670;28;20035;-70
2022/12/09 00:48:13;;;;;;;76.00;38.15;;;;;;;9.30;100.00;99822.47;5055041;28;20025;-70
2022/12/09 00:50:38;;;;;;;74.05;35.17;;;;;;;9.80;100.00;99885.44;5072034;28;20038;-70
2022/12/09 00:53:03;;;;;;;80.55;37.75;;;;;;;9.74;100.00;99898.31;5073539;28;20052;-69
2022/12/09 00:55:29;;;;;;;77.53;38.20;;;;;;;9.69;100.00;99905.19;5073252;28;20036;-69
2022/12/09 00:57:54;;;;;;;82.03;38.28;;;;;;;8.97;100.00;99749.78;5055139;28;20066;-70
2022/12/09 01:00:19;;;;;;;68.45;36.40;;;;;;;9.49;100.00;99823.66;5072835;28;20056;-71
2022/12/09 01:02:45;;;;;;;76.78;38.72;;;;;;;9.86;100.00;99887.00;5071782;28;20468;-70
2022/12/09 01:05:10;;;;;;;71.72;36.67;;;;;;;9.70;100.00;99884.03;5072893;28;20029;-70
2022/12/09 01:07:36;;;;;;;76.25;37.97;;;;;;;9.09;100.00;99806.06;5072509;28;20043;-69
2022/12/09 01:10:03;;;;;;;75.13;37.40;;;;;;;9.29;100.00;99836.03;5073002;28;20177;-68
2022/12/09 01:12:29;;;;;;;73.85;38.45;;;;;;;9.57;100.00;99892.81;5072716;28;20106;-68
2022/12/09 01:14:54;;;;;;;73.97;38.20;;;;;;;9.23;100.00;99844.63;5072840;28;20475;-69
2022/12/09 01:17:20;;;;;;;79.03;38.15;;;;;;;9.54;100.00;99893.75;5072771;28;20032;-71
2022/12/09 01:19:46;;;;;;;81.45;38.17;;;;;;;9.68;100.00;99916.22;5083206;28;20041;-70
2022/12/09 01:22:11;;;;;;;72.18;37.05;;;;;;;9.53;100.00;99909.81;5092916;28;20020;-69
2022/12/09 01:24:37;;;;;;;77.05;39.40;;;;;;;9.17;100.00;99854.09;5093106;28;20177;-69
2022/12/09 01:27:02;;;;;;;73.63;38.63;;;;;;;9.39;100.00;99870.44;5093146;28;20028;-70
2022/12/09 01:29:27;;;;;;;78.30;38.60;;;;;;;9.66;100.00;99915.44;5092364;28;20032;-67
2022/12/09 01:31:54;;;;;;;77.30;37.92;;;;;;;9.55;100.00;99914.84;5092886;28;20093;-69
2022/12/09 01:34:19;;;;;;;74.70;37.40;;;;;;;9.32;100.00;99843.56;5092877;28;20026;-70
2022/12/09 01:36:47;;;;;;;73.88;38.10;;;;;;;9.54;100.00;99888.66;5092630;28;20024;-69
2022/12/09 01:39:13;;;;;;;75.68;38.15;;;;;;;9.41;100.00;99897.44;5074530;28;20467;-70
2022/12/09 01:41:39;;;;;;;72.72;38.22;;;;;;;9.51;100.00;99909.03;5073759;28;20040;-70
2022/12/09 01:44:20;;;;;;;75.63;39.15;;;;;;;9.03;100.00;99823.16;5074377;28;20034;-69
2022/12/09 01:46:46;;;;;;;79.15;38.95;;;;;;;9.33;100.00;99865.53;5074213;28;20024;-69
2022/12/09 01:49:37;;;;;;;76.97;38.10;;;;;;;9.34;100.00;99900.16;5092336;28;20040;-69
2022/12/09 01:52:12;;;;;;;77.30;38.10;;;;;;;8.72;100.00;99823.88;5092396;28;20450;-68
2022/12/09 01:54:40;;;;;;;73.05;38.70;;;;;;;9.09;100.00;99838.22;5092088;28;20067;-69
2022/12/09 01:57:06;;;;;;;78.70;39.53;;;;;;;9.35;100.00;99894.19;5073092;28;20110;-69
2022/12/09 01:59:32;;;;;;;77.63;38.47;;;;;;;8.77;100.00;99796.72;5092204;28;20066;-70
2022/12/09 02:02:01;;;;;;;77.72;39.58;;;;;;;9.33;100.00;99903.59;5091953;28;20067;-69
2022/12/09 02:04:30;;;;;;;77.78;39.08;;;;;;;8.79;100.00;99808.53;5091987;28;20101;-69
2022/12/09 02:06:59;;;;;;;74.65;39.65;;;;;;;9.41;100.00;99899.97;5069096;28;20143;-69
2022/12/09 02:09:24;;;;;;;77.13;39.83;;;;;;;9.35;100.00;99881.50;5055865;28;20487;-69
2022/12/09 02:12:06;;;;;;;76.28;39.83;;;;;;;9.14;100.00;99842.31;5067193;28;20029;-69
2022/12/09 02:14:43;;;;;;;85.65;40.03;;;;;;;9.33;100.00;99916.28;5072032;28;20028;-69
2022/12/09 02:17:14;;;;;;;79.90;39.50;;;;;;;9.18;100.00;99917.44;5071476;28;20107;-69
2022/12/09 02:19:52;;;;;;;85.97;40.28;;;;;;;8.78;100.00;99858.38;5072047;28;20028;-69
2022/12/09 02:22:25;;;;;;;83.93;38.88;;;;;;;8.97;100.00;99877.41;5071855;28;20451;-69
2022/12/09 02:24:55;;;;;;;80.55;39.47;;;;;;;9.30;100.00;99891.81;5071424;28;20094;-69
2022/12/09 02:27:29;;;;;;;79.15;39.97;;;;;;;9.14;100.00;99892.19;5053984;28;20029;-69
2022/12/09 02:30:51;;;;;;;82.28;39.53;;;;;;;8.97;100.00;99877.41;5071313;28;20051;-69
2022/12/09 02:33:49;;;;;;;84.25;38.30;;;;;;;8.61;100.00;99835.97;4983718;28;20036;-69
2022/12/09 02:36:17;;;;;;;89.22;38.90;;;;;;;9.03;100.00;99901.75;4994858;28;20034;-69
2022/12/09 02:38:43;;;;;;;78.85;37.72;;;;;;;8.97;100.00;99895.13;5053931;28;20456;-69
2022/12/09 02:41:19;;;;;;;82.55;38.15;;;;;;;8.25;100.00;99796.25;5071189;28;20025;-69
2022/12/09 02:43:50;;;;;;;85.63;36.75;;;;;;;8.65;100.00;99845.19;5052883;28;20056;-69
2022/12/09 02:46:19;;;;;;;60.97;28.52;;;;;;;8.72;100.00;99844.16;5062994;28;20020;-69
2022/12/09 02:48:52;;;;;;;88.60;39.58;;;;;;;8.70;100.00;99815.47;5077159;28;20028;-69
2022/12/09 02:51:19;;;;;;;83.72;39.60;;;;;;;8.77;100.00;99871.09;5073027;28;20098;-69
2022/12/09 02:53:51;;;;;;;89.95;39.42;;;;;;;8.43;100.00;99821.19;5072578;28;20063;-70
2022/12/09 02:56:17;;;;;;;84.97;39.72;;;;;;;8.86;100.00;99917.34;5091316;28;20035;-69
2022/12/09 02:58:42;;;;;;;88.13;39.70;;;;;;;8.45;100.00;99857.44;5089726;28;20147;-70
2022/12/09 03:01:44;;;;;;;85.85;40.30;;;;;;;9.03;100.00;99922.03;5072615;28;20569;-68
2022/12/09 03:04:17;;;;;;;86.20;40.28;;;;;;;8.92;100.00;99909.59;5022222;28;20111;-70
2022/12/09 03:06:49;;;;;;;88.88;41.10;;;;;;;8.48;100.00;99837.09;5091155;28;20032;-70
2022/12/09 03:09:33;;;;;;;86.15;39.28;;;;;;;8.70;100.00;99890.66;5090182;28;20506;-69
2022/12/09 03:12:05;;;;;;;88.88;40.20;;;;;;;8.49;100.00;99856.50;5090570;28;20032;-71
2022/12/09 03:14:36;;;;;;;89.00;40.03;;;;;;;8.93;100.00;99918.06;5090878;28;20032;-69
2022/12/09 03:17:12;;;;;;;86.20;38.90;;;;;;;8.09;100.00;99776.31;5091277;28;20028;-69
2022/12/09 03:19:51;;;;;;;87.30;38.88;;;;;;;8.53;100.00;99840.38;5090806;28;20494;-70
2022/12/09 03:22:21;;;;;;;90.65;39.00;;;;;;;8.82;100.00;99908.13;5090529;28;20520;-71
2022/12/09 03:25:12;;;;;;;87.25;38.60;;;;;;;8.71;100.00;99927.81;5090256;28;20460;-69
2022/12/09 03:27:49;;;;;;;85.13;38.25;;;;;;;8.71;100.00;99910.91;5072239;28;20032;-70
2022/12/09 03:30:15;;;;;;;78.57;38.03;;;;;;;8.75;100.00;99907.44;5086365;28;20039;-69
2022/12/09 03:32:42;;;;;;;88.72;39.67;;;;;;;8.62;100.00;99900.13;5065216;28;20029;-69
2022/12/09 03:35:14;;;;;;;85.00;39.20;;;;;;;8.30;100.00;99811.34;5051995;28;20414;-68
2022/12/09 03:37:42;;;;;;;86.53;39.25;;;;;;;9.02;100.00;99902.63;5069835;28;20033;-69
2022/12/09 03:40:13;;;;;;;85.68;38.83;;;;;;;8.94;100.00;99882.50;5079722;28;20039;-71
2022/12/09 03:42:47;;;;;;;82.22;37.83;;;;;;;8.39;100.00;99839.84;5090397;28;20103;-68
2022/12/09 03:45:15;;;;;;;79.65;38.17;;;;;;;9.02;100.00;99922.91;5090354;28;20490;-68
2022/12/09 03:47:40;;;;;;;81.32;40.08;;;;;;;8.52;100.00;99826.03;5087634;28;20032;-69
2022/12/09 03:50:06;;;;;;;80.90;38.90;;;;;;;8.11;100.00;99788.09;5070150;28;20388;-70
2022/12/09 03:52:47;;;;;;;83.75;39.60;;;;;;;8.71;100.00;99888.09;5070120;28;20043;-69
2022/12/09 03:55:31;;;;;;;78.88;39.33;;;;;;;8.02;100.00;99789.97;5070356;28;20028;-69
2022/12/09 03:57:59;;;;;;;78.35;38.00;;;;;;;8.59;100.00;99883.31;5070045;28;20033;-69
2022/12/09 04:00:25;;;;;;;80.50;38.72;;;;;;;9.09;100.00;99929.50;5051897;28;20041;-68
2022/12/09 04:02:51;;;;;;;89.95;41.45;;;;;;;8.82;100.00;99918.28;5069697;28;20052;-69
2022/12/09 04:05:16;;;;;;;87.65;43.08;;;;;;;8.86;100.00;99926.63;5069814;28;20428;-68
2022/12/09 04:07:42;;;;;;;88.80;42.25;;;;;;;8.43;100.00;99854.09;5050113;28;20061;-67
2022/12/09 04:10:08;;;;;;;88.53;44.35;;;;;;;8.88;100.00;99947.72;5050062;28;20083;-68
2022/12/09 04:12:34;;;;;;;89.18;43.20;;;;;;;9.07;100.00;99949.00;5032024;28;20028;-69
2022/12/09 04:14:59;;;;;;;96.18;42.67;;;;;;;8.90;100.00;99954.44;5049962;28;20025;-68
2022/12/09 04:17:25;;;;;;;89.85;40.92;;;;;;;8.49;100.00;99909.72;5068601;28;20032;-68
2022/12/09 04:19:50;;;;;;;88.70;41.40;;;;;;;8.19;100.00;99884.13;5065204;28;20067;-69
2022/12/09 04:22:15;;;;;;;97.30;45.72;;;;;;;8.91;100.00;99957.81;5073744;28;20033;-68
2022/12/09 04:24:41;;;;;;;101.93;45.85;;;;;;;8.62;100.00;99923.78;5073601;28;20036;-67
2022/12/09 04:27:08;;;;;;;91.30;45.38;;;;;;;8.79;100.00;99912.44;5073330;28;20110;-68
2022/12/09 04:29:33;;;;;;;96.57;43.42;;;;;;;8.69;100.00;99978.50;5075446;28;20028;-68
2022/12/09 04:31:59;;;;;;;97.95;44.08;;;;;;;8.45;100.00;99880.25;5072503;28;20468;-67
2022/12/09 04:34:24;;;;;;;58.80;28.88;;;;;;;9.83;100.00;99879.44;5074181;28;20043;-71
2022/12/09 04:36:50;;;;;;;88.05;38.47;;;;;;;9.89;100.00;99957.97;5089084;28;20123;-69
2022/12/09 04:39:15;;;;;;;90.22;42.08;;;;;;;8.38;100.00;99881.22;5075278;28;20023;-69
2022/12/09 04:41:40;;;;;;;91.13;40.53;;;;;;;8.19;100.00;99863.88;5092971;28;20032;-70
2022/12/09 04:44:06;;;;;;;85.45;41.28;;;;;;;7.86;100.00;99802.91;5075191;28;20181;-71
2022/12/09 04:46:31;;;;;;;85.53;42.15;;;;;;;8.60;100.00;99940.72;5055287;28;20037;-70
2022/12/09 04:48:57;;;;;;;86.45;42.08;;;;;;;8.69;100.00;99932.91;5053010;28;20033;-70
2022/12/09 04:51:22;;;;;;;90.18;40.50;;;;;;;8.36;100.00;99877.88;5060721;28;20064;-70
2022/12/09 04:53:48;;;;;;;85.90;41.78;;;;;;;8.69;100.00;99932.91;5093692;28;20024;-70
2022/12/09 04:56:20;;;;;;;91.15;43.20;;;;;;;7.60;100.00;99787.44;5074287;28;20482;-71
2022/12/09 04:58:47;;;;;;;96.70;43.38;;;;;;;7.90;100.00;99839.97;5093490;28;20509;-70
2022/12/09 05:01:15;;;;;;;95.10;43.53;;;;;;;8.59;100.00;99941.59;5075095;28;20036;-71
2022/12/09 05:03:41;;;;;;;92.65;41.92;;;;;;;8.89;100.00;99926.59;5092565;28;20039;-71
2022/12/09 05:06:10;;;;;;;89.45;42.70;;;;;;;8.31;100.00;99867.03;5093226;28;20413;-73
2022/12/09 05:08:36;;;;;;;95.82;45.15;;;;;;;8.24;100.00;99842.66;5093751;28;20024;-70
2022/12/09 05:11:03;;;;;;;97.55;44.60;;;;;;;8.03;100.00;99843.09;5074325;28;20118;-70
2022/12/09 05:13:29;;;;;;;103.13;45.13;;;;;;;8.26;100.00;99865.47;5074795;28;20070;-70
2022/12/09 05:16:15;;;;;;;96.50;44.35;;;;;;;7.94;100.00;99817.13;5093268;28;20158;-71
2022/12/09 05:18:42;;;;;;;103.47;44.15;;;;;;;8.44;100.00;99919.09;5074244;28;20024;-71
2022/12/09 05:21:11;;;;;;;103.45;44.58;;;;;;;8.48;100.00;99935.88;5092556;28;20051;-70
2022/12/09 05:23:37;;;;;;;105.85;44.35;;;;;;;8.38;100.00;99933.56;5093434;28;20485;-70
2022/12/09 05:26:05;;;;;;;104.32;44.88;;;;;;;8.09;100.00;99882.63;5075055;28;20085;-71
2022/12/09 05:28:32;;;;;;;105.70;44.88;;;;;;;8.20;100.00;99868.88;5093147;28;20028;-71
2022/12/09 05:31:05;;;;;;;99.63;43.13;;;;;;;8.60;100.00;99955.06;5093145;28;20093;-70
2022/12/09 05:33:31;;;;;;;106.35;44.92;;;;;;;8.49;100.00;99937.56;5076138;28;20487;-70
2022/12/09 05:35:57;;;;;;;108.38;46.38;;;;;;;8.38;100.00;99908.22;5061300;28;20093;-71
2022/12/09 05:38:24;;;;;;;100.65;44.70;;;;;;;8.61;100.00;99950.00;5059410;28;20078;-70
2022/12/09 05:40:50;;;;;;;105.32;45.80;;;;;;;8.38;100.00;99929.34;5071987;28;20037;-69
2022/12/09 05:43:16;;;;;;;111.90;45.90;;;;;;;8.52;100.00;99959.44;5075640;28;20472;-70
2022/12/09 05:45:41;;;;;;;107.00;44.97;;;;;;;8.39;100.00;99953.81;5071923;28;20582;-73
2022/12/09 05:48:07;;;;;;;117.35;45.90;;;;;;;8.24;100.00;99895.81;5071710;28;20063;-72
2022/12/09 05:50:32;;;;;;;98.07;44.95;;;;;;;8.16;100.00;99885.00;5072044;28;20075;-70
2022/12/09 05:52:58;;;;;;;108.40;44.55;;;;;;;8.64;100.00;99970.19;5064719;28;20418;-71
2022/12/09 05:55:23;;;;;;;104.82;44.50;;;;;;;8.80;100.00;99969.84;5072240;28;20063;-70
2022/12/09 05:57:49;;;;;;;97.25;43.50;;;;;;;8.81;100.00;99971.53;5071064;28;20043;-71
2022/12/09 06:00:15;;;;;;;106.47;42.60;;;;;;;8.51;100.00;99967.94;5072173;28;20048;-71
2022/12/09 06:02:41;;;;;;;106.85;42.58;;;;;;;8.38;100.00;99931.88;5072037;28;20059;-70
2022/12/09 06:05:07;;;;;;;106.50;42.47;;;;;;;8.56;100.00;99964.44;5054290;28;20483;-69
2022/12/09 06:07:34;;;;;;;106.45;42.10;;;;;;;8.62;100.00;99978.69;5072030;28;20036;-74
2022/12/09 06:09:59;;;;;;;97.93;43.60;;;;;;;8.66;100.00;99965.91;5067563;28;20099;-70
2022/12/09 06:12:24;;;;;;;103.00;45.08;;;;;;;8.53;100.00;99976.34;5043162;28;20453;-71
2022/12/09 06:14:50;;;;;;;105.47;43.05;;;;;;;8.65;100.00;99974.41;5065214;28;20067;-71
2022/12/09 06:17:15;;;;;;;110.70;46.55;;;;;;;8.48;100.00;99973.88;5062160;28;20036;-72
2022/12/09 06:19:41;;;;;;;116.22;45.90;;;;;;;8.20;100.00;99893.41;5074111;28;20060;-70
2022/12/09 06:22:06;;;;;;;109.00;43.75;;;;;;;8.11;100.00;99894.41;5091912;28;20496;-71
2022/12/09 06:24:33;;;;;;;107.20;44.40;;;;;;;8.53;100.00;99976.34;5091392;28;20035;-70
2022/12/09 06:26:58;;;;;;;112.55;44.40;;;;;;;8.51;100.00;99905.44;5073780;28;20028;-70
2022/12/09 06:29:24;;;;;;;103.55;42.75;;;;;;;8.22;100.00;99897.53;5091595;28;20024;-70
2022/12/09 06:31:49;;;;;;;107.80;44.65;;;;;;;8.58;100.00;99977.91;5073624;28;20685;-70
2022/12/09 06:34:17;;;;;;;107.78;45.53;;;;;;;8.65;100.00;99971.88;5092126;28;20063;-76
2022/12/09 06:36:43;;;;;;;109.63;44.53;;;;;;;8.64;100.00;99979.47;5043165;28;20025;-71
2022/12/09 06:39:09;;;;;;;106.05;43.35;;;;;;;8.23;100.00;99911.06;5034150;28;20102;-72
2022/12/09 06:41:34;;;;;;;107.68;43.35;;;;;;;8.65;100.00;99964.25;5065413;28;20044;-73
2022/12/09 06:44:00;;;;;;;115.72;48.53;;;;;;;8.63;100.00;99983.72;5071332;28;20071;-73
2022/12/09 06:46:27;;;;;;;112.05;46.50;;;;;;;8.90;100.00;99968.78;5071913;28;20032;-72
2022/12/09 06:48:53;;;;;;;111.38;45.17;;;;;;;8.71;100.00;99983.56;5054673;28;20111;-73
2022/12/09 06:51:20;;;;;;;104.47;44.20;;;;;;;8.82;100.00;99986.72;5072145;28;20044;-73
2022/12/09 06:53:46;;;;;;;103.45;44.58;;;;;;;8.24;100.00;99908.47;5077593;28;20028;-73
2022/12/09 06:56:13;;;;;;;100.97;41.83;;;;;;;8.45;100.00;99950.31;5092199;28;20036;-73
2022/12/09 06:58:39;;;;;;;105.95;43.65;;;;;;;8.83;100.00;99978.25;5092131;28;20043;-71
2022/12/09 07:01:16;;;;;;;104.97;44.53;;;;;;;9.18;100.00;100007.91;5090841;28;20059;-72
2022/12/09 07:03:43;;;;;;;98.45;42.28;;;;;;;8.35;100.00;99908.31;5071912;28;20498;-72
2022/12/09 07:06:36;;;;;;;99.82;42.60;;;;;;;8.94;100.00;99996.59;5071989;28;20028;-72
2022/12/09 07:09:05;;;;;;;110.13;45.08;;;;;;;8.87;100.00;99943.53;5047493;28;20055;-70
2022/12/09 07:11:31;;;;;;;104.32;46.60;;;;;;;8.99;100.00;99991.44;5071014;28;20534;-70
2022/12/09 07:13:56;;;;;;;95.32;42.60;;;;;;;9.04;100.00;99993.00;5071456;28;20307;-70
2022/12/09 07:16:22;;;;;;;91.95;41.92;;;;;;;9.12;100.00;100005.50;5053650;28;20477;-71
2022/12/09 07:18:52;;;;;;;102.85;40.58;;;;;;;8.80;100.00;99990.97;5071242;28;20044;-72
2022/12/09 07:21:19;;;;;;;94.80;39.88;;;;;;;7.97;100.00;99802.72;5071182;28;20051;-72
2022/12/09 07:23:45;;;;;;;100.43;39.85;;;;;;;9.05;100.00;99973.56;5071091;28;20039;-72
2022/12/09 07:26:10;;;;;;;101.53;41.17;;;;;;;9.26;100.00;99988.28;5053009;28;20028;-72
2022/12/09 07:28:38;;;;;;;94.68;39.92;;;;;;;9.05;100.00;99992.13;5070792;28;20021;-71
2022/12/09 07:31:04;;;;;;;98.38;41.75;;;;;;;8.97;100.00;99994.00;5070099;28;20040;-71
2022/12/09 07:33:29;;;;;;;102.90;40.75;;;;;;;9.29;100.00;100001.72;5052591;28;20050;-72
2022/12/09 07:35:57;;;;;;;92.85;40.15;;;;;;;9.29;100.00;99988.22;5070395;28;20021;-71
2022/12/09 07:38:24;;;;;;;88.47;38.83;;;;;;;8.89;100.00;99908.84;5069533;28;20399;-72
2022/12/09 07:40:50;;;;;;;99.47;39.40;;;;;;;9.72;100.00;99988.03;5085440;28;20032;-71
2022/12/09 07:43:15;;;;;;;92.80;38.53;;;;;;;9.45;100.00;99992.06;5065435;28;20086;-71
2022/12/09 07:45:41;;;;;;;103.72;38.88;;;;;;;8.73;100.00;99895.69;5049597;28;20495;-71
2022/12/09 07:48:07;;;;;;;102.15;39.78;;;;;;;9.16;100.00;99931.88;5049621;28;20040;-70
2022/12/09 07:50:33;;;;;;;100.47;44.85;;;;;;;9.43;100.00;99991.25;5032563;28;20055;-71
2022/12/09 07:52:58;;;;;;;99.68;40.22;;;;;;;8.89;100.00;99916.44;5050570;28;20491;-71
2022/12/09 07:55:29;;;;;;;94.60;39.85;;;;;;;9.50;100.00;99987.72;5049957;28;20063;-71
2022/12/09 07:57:54;;;;;;;102.25;41.80;;;;;;;9.43;100.00;99978.56;5054337;28;20036;-71
2022/12/09 08:00:20;;;;;;;104.55;41.28;;;;;;;8.97;100.00;99939.94;5053706;28;20143;-71
2022/12/09 08:02:46;;;;;;;99.22;40.28;;;;;;;8.73;100.00;99929.44;5054030;28;20051;-71
2022/12/09 08:05:11;;;;;;;98.72;41.63;;;;;;;9.53;100.00;100002.88;5052448;28;20033;-71
2022/12/09 08:07:37;;;;;;;103.88;43.25;;;;;;;9.63;100.00;100014.47;5052351;28;20119;-71
2022/12/09 08:10:02;;;;;;;130.07;59.78;;;;;;;9.03;100.00;99977.81;5054121;28;20029;-71
2022/12/09 08:12:28;;;;;;;122.45;54.15;;;;;;;9.11;100.00;99978.50;5054157;28;20458;-71
2022/12/09 08:14:53;;;;;;;103.90;42.25;;;;;;;8.81;100.00;99969.00;5054077;28;20063;-73
2022/12/09 08:17:18;;;;;;;101.63;46.40;;;;;;;9.04;100.00;100014.97;5036341;28;20036;-71
2022/12/09 08:19:45;;;;;;;108.07;42.05;;;;;;;8.62;100.00;99948.28;5054374;28;20021;-70
2022/12/09 08:22:10;;;;;;;110.35;43.30;;;;;;;8.92;100.00;99949.31;5054099;28;20036;-71
2022/12/09 08:24:35;;;;;;;108.78;45.38;;;;;;;8.68;100.00;99903.38;5054026;28;20052;-70
2022/12/09 08:27:01;;;;;;;107.38;44.08;;;;;;;9.15;100.00;99967.41;5053953;28;20032;-71
2022/12/09 08:29:26;;;;;;;116.72;44.38;;;;;;;9.37;100.00;100035.38;5054378;28;20125;-71
2022/12/09 08:31:52;;;;;;;122.05;48.45;;;;;;;9.32;100.00;100018.59;5053299;28;20121;-73
2022/12/09 08:34:17;;;;;;;107.13;41.45;;;;;;;9.52;100.00;100034.19;5054455;28;20545;-71
2022/12/09 08:36:43;;;;;;;118.72;44.17;;;;;;;9.34;100.00;100022.75;5035769;28;20029;-71
2022/12/09 08:39:10;;;;;;;123.40;45.17;;;;;;;8.62;100.00;99923.78;5053972;28;20029;-71
2022/12/09 08:41:36;;;;;;;119.20;44.85;;;;;;;9.57;100.00;100024.75;5053545;28;20078;-72
2022/12/09 08:44:10;;;;;;;125.57;43.95;;;;;;;9.11;100.00;99959.03;5054157;28;20025;-72
2022/12/09 08:46:37;;;;;;;121.97;43.70;;;;;;;9.39;100.00;100008.25;5053860;28;20033;-72
2022/12/09 08:49:04;;;;;;;125.93;42.58;;;;;;;9.05;100.00;99956.63;5053473;28;20056;-70
2022/12/09 08:51:30;;;;;;;125.45;44.13;;;;;;;9.47;100.00;100018.22;5059183;28;20455;-73
2022/12/09 08:53:57;;;;;;;121.88;44.15;;;;;;;9.58;100.00;100023.91;5074444;28;20028;-72
2022/12/09 08:56:23;;;;;;;117.75;43.25;;;;;;;9.00;100.00;99965.19;5056069;28;20142;-72
2022/12/09 08:58:48;;;;;;;122.63;43.78;;;;;;;9.51;100.00;100013.06;5055662;28;20132;-74
2022/12/09 09:01:20;;;;;;;124.75;42.70;;;;;;;8.93;100.00;99933.25;5074005;28;20123;-74
2022/12/09 09:03:46;;;;;;;135.38;42.05;;;;;;;9.55;100.00;100001.97;5073683;28;20035;-73
2022/12/09 09:06:13;;;;;;;133.68;43.70;;;;;;;9.24;100.00;99965.50;5073829;28;20513;-74
2022/12/09 09:08:39;;;;;;;146.25;47.28;;;;;;;9.05;100.00;99920.31;5056646;28;20417;-73
2022/12/09 09:11:13;;;;;;;136.95;44.65;;;;;;;8.92;100.00;99917.22;5074190;28;20037;-73
2022/12/09 09:13:44;;;;;;;138.23;44.58;;;;;;;9.27;100.00;99969.69;5074121;28;20535;-73
2022/12/09 09:16:13;;;;;;;131.88;42.97;;;;;;;9.16;100.00;99905.66;5073077;28;20027;-71
2022/12/09 09:18:39;;;;;;;127.05;41.60;;;;;;;9.36;100.00;99977.91;5071105;28;20116;-71
2022/12/09 09:21:06;;;;;;;125.97;40.17;;;;;;;9.29;100.00;99968.75;5073131;28;20028;-72
2022/12/09 09:23:32;;;;;;;116.68;40.67;;;;;;;9.09;100.00;99975.97;5072629;28;20181;-70
2022/12/09 09:25:58;;;;;;;119.85;38.65;;;;;;;9.33;100.00;99969.53;5072825;28;20120;-72
2022/12/09 09:28:24;;;;;;;120.60;40.33;;;;;;;9.53;100.00;99952.13;5073248;28;20647;-71
2022/12/09 09:31:00;;;;;;;116.35;40.28;;;;;;;8.90;100.00;99882.63;5072928;28;20025;-72
2022/12/09 09:33:25;;;;;;;120.35;39.35;;;;;;;8.98;100.00;99899.31;5065744;28;20458;-73
2022/12/09 09:35:59;;;;;;;111.13;40.78;;;;;;;9.06;100.00;99907.59;5054786;28;20024;-71
2022/12/09 09:38:27;;;;;;;119.90;42.15;;;;;;;9.48;100.00;99941.25;5072478;28;20032;-71
2022/12/09 09:40:53;;;;;;;113.53;39.25;;;;;;;9.40;100.00;99926.22;5073189;28;20551;-70
2022/12/09 09:43:24;;;;;;;114.15;38.22;;;;;;;9.46;100.00;99915.94;5069424;28;20043;-71
2022/12/09 09:45:52;;;;;;;104.95;38.08;;;;;;;9.30;100.00;99914.63;5052093;28;20495;-70
2022/12/09 09:48:30;;;;;;;111.00;40.42;;;;;;;9.51;100.00;99942.00;5052592;28;20029;-70
2022/12/09 09:51:01;;;;;;;121.45;43.47;;;;;;;9.70;100.00;99955.09;5052673;28;20028;-71
2022/12/09 09:53:32;;;;;;;117.28;39.38;;;;;;;9.45;100.00;99946.38;5036927;28;20029;-70
2022/12/09 09:56:05;;;;;;;119.70;42.63;;;;;;;9.06;100.00;99883.94;5086518;28;20462;-70
2022/12/09 09:58:51;;;;;;;114.72;41.45;;;;;;;9.59;100.00;99946.88;5080428;28;20151;-71
2022/12/09 10:01:17;;;;;;;129.48;50.58;;;;;;;9.24;100.00;99927.47;5060194;28;20052;-72
2022/12/09 10:03:57;;;;;;;104.88;38.92;;;;;;;9.26;100.00;99935.03;5072359;28;20038;-70
2022/12/09 10:06:44;;;;;;;118.55;40.42;;;;;;;9.33;100.00;99911.19;5090773;28;20020;-70
2022/12/09 10:09:35;;;;;;;118.93;39.33;;;;;;;9.40;100.00;99915.25;5075791;28;20024;-69
2022/12/09 10:12:25;;;;;;;106.73;39.03;;;;;;;8.91;100.00;99844.56;5092271;28;20028;-70
2022/12/09 10:14:51;;;;;;;102.47;36.42;;;;;;;9.21;100.00;99921.63;5091434;28;20274;-70
2022/12/09 10:17:22;;;;;;;110.47;38.53;;;;;;;9.53;100.00;99906.44;5079272;28;20457;-70
2022/12/09 10:19:50;;;;;;;109.57;38.08;;;;;;;9.49;100.00;99880.31;5071593;28;20143;-70
2022/12/09 10:22:28;;;;;;;107.13;37.90;;;;;;;9.78;100.00;99899.88;5071502;28;20193;-69
2022/12/09 10:25:02;;;;;;;99.05;35.83;;;;;;;9.73;100.00;99899.16;5071763;28;20036;-71
2022/12/09 10:27:44;;;;;;;87.22;35.40;;;;;;;9.59;100.00;99868.22;5071950;28;20047;-70
2022/12/09 10:30:12;;;;;;;92.03;33.38;;;;;;;8.75;100.00;99742.69;5075109;28;20039;-71
2022/12/09 10:32:39;;;;;;;99.90;37.90;;;;;;;9.48;100.00;99890.50;5059956;28;20105;-70
2022/12/09 10:35:15;;;;;;;104.15;39.03;;;;;;;9.54;100.00;99893.75;5083011;28;20032;-70
2022/12/09 10:37:41;;;;;;;91.15;35.50;;;;;;;8.58;100.00;99733.84;5051443;28;20025;-70
2022/12/09 10:40:06;;;;;;;90.65;35.25;;;;;;;9.63;100.00;99896.03;5050937;28;20093;-69
2022/12/09 10:45:26;;;;;;;98.15;39.10;;;;;;;9.16;100.00;99787.31;5054507;28;20051;-70
2022/12/09 10:47:52;;;;;;;109.47;41.20;;;;;;;9.38;100.00;99796.03;5086998;28;20024;-72
2022/12/09 10:50:30;;;;;;;102.28;39.30;;;;;;;9.79;100.00;99876.16;5091732;28;20445;-70
2022/12/09 10:53:01;;;;;;;75.95;32.28;;;;;;;10.68;100.00;99782.09;5089601;28;20036;-70
2022/12/09 10:55:35;;;;;;;97.25;38.40;;;;;;;9.64;100.00;99833.41;5069453;28;20074;-72
2022/12/09 10:58:29;;;;;;;95.25;35.85;;;;;;;9.92;100.00;99866.50;5069909;28;20140;-72
2022/12/09 11:01:07;;;;;;;93.80;36.53;;;;;;;9.69;100.00;99848.50;5069614;28;20055;-72
2022/12/09 11:03:45;;;;;;;107.65;39.80;;;;;;;9.74;100.00;99862.75;5070006;28;20043;-72
2022/12/09 11:06:27;;;;;;;108.03;39.42;;;;;;;9.92;100.00;99864.81;5052170;28;20046;-70
2022/12/09 11:08:57;;;;;;;79.90;33.47;;;;;;;10.03;100.00;99768.00;5067384;28;20041;-68
2022/12/09 11:11:52;;;;;;;97.50;39.50;;;;;;;9.88;100.00;99845.47;5035764;28;20043;-70
2022/12/09 11:14:32;;;;;;;102.47;38.55;;;;;;;9.80;100.00;99838.91;5019171;28;20318;-70
2022/12/09 11:17:18;;;;;;;97.07;37.78;;;;;;;9.74;100.00;99834.00;5050302;28;20513;-69
2022/12/09 11:20:09;;;;;;;100.13;38.15;;;;;;;9.36;100.00;99753.81;5050696;28;20033;-69
2022/12/09 11:22:42;;;;;;;101.95;39.83;;;;;;;9.32;100.00;99757.31;5040029;28;20483;-70
2022/12/09 11:25:11;;;;;;;107.80;40.72;;;;;;;9.81;100.00;99841.41;5047279;28;20033;-70